Aérodrome :
LOGIN :

S'inscrire | Disclaimer

   EN    FR    IT 

 










Légende :    VFR   VFR Marginal   IFR   IFR Intensif   IFR Très Intensif
Visi : 
Plafond : 
>= 8 km
>= 3000ft
5 à 8 km
1000 à 3000 ft
1500m à 5 km
500 à 1000 ft
800 à 1500m
200 à 500 ft
< 800m
< 200 ft
Symboles :   Orages  Brouillard  Fortes neiges  Fortes précipitations  Vent > 20 kt
SIGMETs :   Divers  Orages  Givrage  Turbulence  Onde Orograph.  Cendres Volcan.







- Altitude de l'aérodrome : 327 ft
- Code IATA : BHX
- Voir les cartes d'approche


EGBB - Birmingham

DERNIER METAR :
  • 180320Z 08005KT 9999 BKN044 10/08 Q1014

METARs EXPIRÉS :
  • 180250Z 07004KT 9999 OVC044 10/08 Q1014
  • 180220Z 05003KT 9999 OVC045 10/08 Q1014
  • 180150Z VRB02KT 9999 OVC040 10/08 Q1015
  • 180120Z 36002KT 9999 OVC043 10/09 Q1015
  • 180050Z 15003KT 9999 OVC043 10/09 Q1015

TAF AMD TAF EGBB
Valide du 18 à 03h jusqu'au 19 à 00h UTC


180313Z 1803/1824 19003KT 9999 SCT040
BECMG 1803/1806 09010KT
PROB30
TEMPO 1803/1812 8000 RA
BECMG 1812/1815 BKN014
TEMPO 1812/1824 8000 -RA
BECMG 1815/1818 BKN008
BECMG 1818/1821 16005KT
TEMPO 1818/1824 BKN004
PROB30
TEMPO 1821/1824 3000 DZ BR BKN001
ATIS : +44 121 780 0910
Pas de NOTAMs connus pour ce terrain.



MET'MAP, la Météo Aéronautique d'un coup d'oeil ! - Copyright ORBIFLY Décembre 2007 - Disclaimer

ORBIFLY MET'MAP TEAM :

Programmation & Développement : Alexandra Zaïnal
Conception & Développement : Baudouin d'Aumeries
Co-Programmation & Développement : Marc-Olivier Méhu
Soutien technique & logistique : Manuel Goepfert

Contact : metmap@orbifly.com




SOURCES & CREDITS :

   NOAA